Time;durP1;ratioP1;P1;durP2;ratioP2;P2;SDS_P1;SDS_P2;PMS_P1;PMS_P2;Temp;Humidity;BMP_temperature;BMP_pressure;BME280_temperature;BME280_humidity;BME280_pressure;Samples;Min_cycle;Max_cycle;Signal;HPM_P1;HPM_P2
2022/05/05 00:01:00;;;;;;;4.70;4.00;;;;;;;;;;5080873;28;20538;-72
2022/05/05 00:03:27;;;;;;;4.30;3.60;;;;;;;;;;5088131;28;20456;-72
2022/05/05 00:05:54;;;;;;;5.17;4.67;;;;;;;;;;5087127;28;20456;-72
2022/05/05 00:08:22;;;;;;;6.23;3.90;;;;;;;;;;5088053;28;20485;-72
2022/05/05 00:16:19;;;;;;;5.00;3.77;;;;;;;;;;5080911;28;20438;-72
2022/05/05 00:18:46;;;;;;;6.37;4.33;;;;;;;;;;5080797;28;20494;-73
2022/05/05 00:21:13;;;;;;;4.43;3.70;;;;;;;;;;5087862;28;20970;-72
2022/05/05 00:23:40;;;;;;;4.33;3.80;;;;;;;;;;5072986;28;20459;-73
2022/05/05 00:26:08;;;;;;;4.07;3.63;;;;;;;;;;5087068;28;20451;-73
2022/05/05 00:28:35;;;;;;;4.87;3.27;;;;;;;;;;5086017;28;20540;-72
2022/05/05 00:31:02;;;;;;;4.40;4.00;;;;;;;;;;5080057;28;20446;-74
2022/05/05 00:33:31;;;;;;;4.90;4.03;;;;;;;;;;5080646;28;20551;-74
2022/05/05 00:35:58;;;;;;;4.27;3.87;;;;;;;;;;5086518;28;20447;-74
2022/05/05 00:38:25;;;;;;;6.63;4.17;;;;;;;;;;5086947;28;20510;-72
2022/05/05 00:40:52;;;;;;;5.40;4.10;;;;;;;;;;5079027;28;20443;-73
2022/05/05 00:43:20;;;;;;;4.37;3.80;;;;;;;;;;5080068;28;20445;-72
2022/05/05 00:45:47;;;;;;;6.37;4.60;;;;;;;;;;5085426;28;20937;-72
2022/05/05 00:48:14;;;;;;;4.33;3.93;;;;;;;;;;5086452;28;20457;-72
2022/05/05 00:50:43;;;;;;;5.23;3.97;;;;;;;;;;5080249;28;20520;-72
2022/05/05 00:53:10;;;;;;;4.53;3.40;;;;;;;;;;5077725;28;20475;-72
2022/05/05 00:55:39;;;;;;;5.30;3.53;;;;;;;;;;5081255;28;20549;-72
2022/05/05 00:58:06;;;;;;;5.27;4.27;;;;;;;;;;5079399;28;20529;-73
2022/05/05 01:00:34;;;;;;;4.00;3.60;;;;;;;;;;5082434;28;20454;-73
2022/05/05 01:03:02;;;;;;;4.13;3.27;;;;;;;;;;5086405;28;20482;-73
2022/05/05 01:05:30;;;;;;;5.37;4.37;;;;;;;;;;5083276;28;20446;-73
2022/05/05 01:07:59;;;;;;;5.40;4.10;;;;;;;;;;5080283;28;20472;-73
2022/05/05 01:10:26;;;;;;;4.47;3.60;;;;;;;;;;5083099;28;20439;-72
2022/05/05 01:12:53;;;;;;;5.30;4.23;;;;;;;;;;5086148;28;20474;-73
2022/05/05 01:15:21;;;;;;;5.33;4.17;;;;;;;;;;5084138;28;20870;-73
2022/05/05 01:17:48;;;;;;;6.10;4.67;;;;;;;;;;5079378;28;20446;-72
2022/05/05 01:20:16;;;;;;;9.10;4.17;;;;;;;;;;5081675;28;20582;-72
2022/05/05 01:22:44;;;;;;;3.50;3.20;;;;;;;;;;5090132;28;20491;-73
2022/05/05 01:28:12;;;;;;;5.90;3.47;;;;;;;;;;5079689;28;20514;-73
2022/05/05 01:30:39;;;;;;;4.80;4.23;;;;;;;;;;5077817;28;20925;-73
2022/05/05 01:33:13;;;;;;;6.30;4.47;;;;;;;;;;5082766;28;20456;-73
2022/05/05 01:35:41;;;;;;;6.00;4.27;;;;;;;;;;5084843;28;20493;-73
2022/05/05 01:38:10;;;;;;;5.93;3.67;;;;;;;;;;5084274;28;20453;-73
2022/05/05 01:40:37;;;;;;;5.00;3.93;;;;;;;;;;5078182;28;20447;-73
2022/05/05 01:43:04;;;;;;;4.97;3.70;;;;;;;;;;5080088;28;20960;-72
2022/05/05 01:45:31;;;;;;;5.43;4.37;;;;;;;;;;5085710;28;20450;-73
2022/05/05 01:47:59;;;;;;;6.77;5.20;;;;;;;;;;5072323;28;20450;-72
2022/05/05 01:50:26;;;;;;;6.60;4.30;;;;;;;;;;5077736;28;20464;-72
2022/05/05 01:52:54;;;;;;;5.37;4.47;;;;;;;;;;5078623;28;20477;-72
2022/05/05 01:55:22;;;;;;;5.50;4.23;;;;;;;;;;5079160;28;20460;-73
2022/05/05 01:57:50;;;;;;;6.73;4.80;;;;;;;;;;5078486;28;20804;-73
2022/05/05 02:00:17;;;;;;;5.50;4.23;;;;;;;;;;5084270;28;20576;-73
2022/05/05 02:02:44;;;;;;;3.77;3.33;;;;;;;;;;5085449;28;20453;-73
2022/05/05 02:05:12;;;;;;;5.30;4.77;;;;;;;;;;5079899;28;20446;-73
2022/05/05 02:07:39;;;;;;;5.67;4.07;;;;;;;;;;5078098;28;20456;-73
2022/05/05 02:10:06;;;;;;;5.33;4.73;;;;;;;;;;5083830;28;20462;-73
2022/05/05 02:12:36;;;;;;;4.33;3.93;;;;;;;;;;5084376;28;20532;-73
2022/05/05 02:15:05;;;;;;;4.77;4.20;;;;;;;;;;5081022;28;20565;-73
2022/05/05 02:17:32;;;;;;;4.50;4.13;;;;;;;;;;5077742;28;20947;-73
2022/05/05 02:20:01;;;;;;;3.97;3.60;;;;;;;;;;5082714;28;20477;-73
2022/05/05 02:22:28;;;;;;;5.33;4.20;;;;;;;;;;5088238;28;20460;-73
2022/05/05 02:24:55;;;;;;;5.03;4.27;;;;;;;;;;5081301;28;20453;-73
2022/05/05 02:27:22;;;;;;;4.87;4.30;;;;;;;;;;5084521;28;20455;-73
2022/05/05 02:29:52;;;;;;;7.43;4.50;;;;;;;;;;5080531;28;20449;-73
2022/05/05 02:32:19;;;;;;;5.97;4.10;;;;;;;;;;5077766;28;20948;-73
2022/05/05 02:34:47;;;;;;;5.90;5.00;;;;;;;;;;5079877;28;20449;-73
2022/05/05 02:39:59;;;;;;;5.23;4.40;;;;;;;;;;5084172;28;20467;-73
2022/05/05 02:42:27;;;;;;;6.03;5.13;;;;;;;;;;5070906;28;20962;-73
2022/05/05 02:44:55;;;;;;;4.80;4.20;;;;;;;;;;5084023;28;21060;-73
2022/05/05 02:47:22;;;;;;;5.37;4.60;;;;;;;;;;5078569;28;20535;-73
2022/05/05 02:49:49;;;;;;;5.27;4.40;;;;;;;;;;5076115;28;20450;-73
2022/05/05 02:52:16;;;;;;;6.20;3.90;;;;;;;;;;5083101;28;20491;-73
2022/05/05 02:54:51;;;;;;;4.47;3.73;;;;;;;;;;5071698;28;20456;-73
2022/05/05 02:57:19;;;;;;;5.70;4.50;;;;;;;;;;5082431;28;20456;-73
2022/05/05 02:59:47;;;;;;;4.70;4.30;;;;;;;;;;5082194;28;20480;-73
2022/05/05 03:02:16;;;;;;;5.93;4.90;;;;;;;;;;5080680;28;20858;-73
2022/05/05 03:04:43;;;;;;;6.97;4.63;;;;;;;;;;5076441;28;20535;-73
2022/05/05 03:07:10;;;;;;;6.23;4.40;;;;;;;;;;5081031;28;20443;-73
2022/05/05 03:09:37;;;;;;;5.17;4.67;;;;;;;;;;5083061;28;20536;-73
2022/05/05 03:12:05;;;;;;;5.40;3.90;;;;;;;;;;5081093;28;20444;-73
2022/05/05 03:14:32;;;;;;;5.20;4.03;;;;;;;;;;5077207;28;20878;-73
2022/05/05 03:16:59;;;;;;;4.93;4.43;;;;;;;;;;5080655;28;20491;-73
2022/05/05 03:19:28;;;;;;;4.13;3.77;;;;;;;;;;5084396;28;20573;-73
2022/05/05 03:21:55;;;;;;;5.80;3.97;;;;;;;;;;5081326;28;20445;-73
2022/05/05 03:24:22;;;;;;;4.80;4.07;;;;;;;;;;5086678;28;20457;-73
2022/05/05 03:26:49;;;;;;;5.30;4.13;;;;;;;;;;5081037;28;20444;-73
2022/05/05 03:29:16;;;;;;;5.20;4.67;;;;;;;;;;5076959;28;20448;-73
2022/05/05 03:31:44;;;;;;;4.77;4.27;;;;;;;;;;5078598;28;20453;-73
2022/05/05 03:34:11;;;;;;;5.57;4.50;;;;;;;;;;5084030;28;20529;-73
2022/05/05 03:36:39;;;;;;;6.70;4.77;;;;;;;;;;5081684;28;20551;-73
2022/05/05 03:39:06;;;;;;;5.60;5.00;;;;;;;;;;5076562;28;20485;-73
2022/05/05 03:41:34;;;;;;;5.17;4.23;;;;;;;;;;5078118;28;20480;-73
2022/05/05 03:44:02;;;;;;;4.23;3.67;;;;;;;;;;5084172;28;20493;-73
2022/05/05 03:46:30;;;;;;;5.30;4.47;;;;;;;;;;5082856;28;20454;-73
2022/05/05 03:48:58;;;;;;;4.57;4.10;;;;;;;;;;5076496;28;20441;-73
2022/05/05 03:51:25;;;;;;;7.33;4.20;;;;;;;;;;5077897;28;20458;-72
2022/05/05 03:53:54;;;;;;;9.03;5.37;;;;;;;;;;5069888;28;20824;-73
2022/05/05 03:56:22;;;;;;;4.33;3.93;;;;;;;;;;5084331;28;20449;-73
2022/05/05 03:58:49;;;;;;;5.63;4.77;;;;;;;;;;5077588;28;20463;-73
2022/05/05 04:01:16;;;;;;;5.97;4.37;;;;;;;;;;5075453;28;20458;-73
2022/05/05 04:03:44;;;;;;;5.83;4.70;;;;;;;;;;5082173;28;20852;-73
2022/05/05 04:06:13;;;;;;;5.90;4.43;;;;;;;;;;5083607;28;20444;-73
2022/05/05 04:08:40;;;;;;;4.17;3.77;;;;;;;;;;5078668;28;20502;-73
2022/05/05 04:11:09;;;;;;;4.90;4.40;;;;;;;;;;5077104;28;20549;-73
2022/05/05 04:13:36;;;;;;;5.33;4.30;;;;;;;;;;5080265;28;20467;-73
2022/05/05 04:16:04;;;;;;;6.37;4.80;;;;;;;;;;5084449;28;20530;-73
2022/05/05 04:18:31;;;;;;;5.20;4.57;;;;;;;;;;5080648;28;20523;-73
2022/05/05 04:20:58;;;;;;;5.20;4.30;;;;;;;;;;5076261;28;20863;-73
2022/05/05 04:23:26;;;;;;;6.10;4.63;;;;;;;;;;5090633;28;20456;-73
2022/05/05 04:25:53;;;;;;;5.30;4.53;;;;;;;;;;5075577;28;21103;-73
2022/05/05 04:28:23;;;;;;;6.47;4.47;;;;;;;;;;5078882;28;20984;-73
2022/05/05 04:30:50;;;;;;;4.80;3.87;;;;;;;;;;5083084;28;20549;-73
2022/05/05 04:33:17;;;;;;;4.73;3.93;;;;;;;;;;5080818;28;20442;-73
2022/05/05 04:35:46;;;;;;;5.60;4.40;;;;;;;;;;5076830;28;20445;-73
2022/05/05 04:38:13;;;;;;;5.50;4.57;;;;;;;;;;5082013;28;20454;-73
2022/05/05 04:40:41;;;;;;;5.13;4.20;;;;;;;;;;5077439;28;20484;-73
2022/05/05 04:43:08;;;;;;;6.80;4.40;;;;;;;;;;5081307;28;20502;-73
2022/05/05 04:45:37;;;;;;;5.00;4.20;;;;;;;;;;5086167;28;20461;-72
2022/05/05 04:48:04;;;;;;;4.53;4.03;;;;;;;;;;5085826;28;20533;-73
2022/05/05 04:50:31;;;;;;;5.87;4.50;;;;;;;;;;5079189;28;20451;-73
2022/05/05 04:52:58;;;;;;;4.93;4.43;;;;;;;;;;5079657;28;20479;-73
2022/05/05 04:55:25;;;;;;;4.90;3.90;;;;;;;;;;5080687;28;20451;-73
2022/05/05 04:57:52;;;;;;;6.07;4.67;;;;;;;;;;5079373;28;20449;-73
2022/05/05 05:00:21;;;;;;;6.93;4.30;;;;;;;;;;5084703;28;20492;-73
2022/05/05 05:02:49;;;;;;;4.53;3.53;;;;;;;;;;5086280;28;20481;-73
2022/05/05 05:05:18;;;;;;;4.57;4.00;;;;;;;;;;5081988;28;20479;-72
2022/05/05 05:07:45;;;;;;;5.20;4.00;;;;;;;;;;5079286;28;20467;-73
2022/05/05 05:10:12;;;;;;;3.47;3.03;;;;;;;;;;5084353;28;20457;-73
2022/05/05 05:12:39;;;;;;;4.37;3.83;;;;;;;;;;5086159;28;20470;-73
2022/05/05 05:15:07;;;;;;;4.77;4.10;;;;;;;;;;5082169;28;20944;-72
2022/05/05 05:17:34;;;;;;;5.40;3.50;;;;;;;;;;5078760;28;20957;-72
2022/05/05 05:20:03;;;;;;;4.60;4.13;;;;;;;;;;5083429;28;20488;-72
2022/05/05 05:22:30;;;;;;;5.87;4.93;;;;;;;;;;5073013;28;20458;-72
2022/05/05 05:24:57;;;;;;;5.97;3.80;;;18.30;99.90;;;;;;5082418;28;20480;-72
2022/05/05 05:27:24;;;;;;;4.20;3.80;;;13.00;99.90;;;;;;5079175;28;20463;-72
2022/05/05 05:29:50;;;;;;;4.67;3.70;;;12.80;99.90;;;;;;5081147;28;20457;-74
2022/05/05 05:32:17;;;;;;;6.30;4.03;;;12.50;99.90;;;;;;5085880;28;20971;-73
2022/05/05 05:34:44;;;;;;;4.50;4.10;;;12.50;99.90;;;;;;5082565;28;20447;-73
2022/05/05 05:37:12;;;;;;;5.43;4.90;;;12.60;99.90;;;;;;5078850;28;20511;-73
2022/05/05 05:39:39;;;;;;;5.70;4.37;;;12.50;99.90;;;;;;5080485;28;20449;-73
2022/05/05 05:42:07;;;;;;;4.40;4.00;;;12.50;99.90;;;;;;5086164;28;21071;-73
2022/05/05 05:44:34;;;;;;;4.90;4.13;;;12.70;99.90;;;;;;5083750;28;20801;-73
2022/05/05 05:47:01;;;;;;;4.83;4.30;;;12.80;99.90;;;;;;5078166;28;20543;-73
2022/05/05 05:49:28;;;;;;;5.90;4.40;;;12.80;99.90;;;;;;5080825;28;20444;-73
2022/05/05 05:51:55;;;;;;;8.30;4.23;;;12.90;99.90;;;;;;5085351;28;20907;-72
2022/05/05 05:54:23;;;;;;;4.87;4.47;;;12.90;99.90;;;;;;5084584;28;20461;-73
2022/05/05 05:56:50;;;;;;;5.40;4.37;;;12.90;99.90;;;;;;5077744;28;20535;-73
2022/05/05 05:59:16;;;;;;;6.30;4.63;;;13.00;99.90;;;;;;5079859;28;20527;-73
2022/05/05 06:04:28;;;;;;;5.97;4.00;;;;;;;;;;5078972;28;20486;-73
2022/05/05 06:06:55;;;;;;;4.80;4.03;;;;;;;;;;5083478;28;20450;-73
2022/05/05 06:09:24;;;;;;;6.30;4.67;;;;;;;;;;5085155;28;20562;-73
2022/05/05 06:11:51;;;;;;;7.17;5.37;;;;;;;;;;5080963;28;20684;-72
2022/05/05 06:14:18;;;;;;;4.57;4.03;;;;;;;;;;5078486;28;20533;-72
2022/05/05 06:16:45;;;;;;;5.63;5.03;;;13.10;99.90;;;;;;5081733;28;20458;-72
2022/05/05 06:19:12;;;;;;;6.00;4.87;;;13.80;1.00;;;;;;5084974;28;20960;-72
2022/05/05 06:21:39;;;;;;;5.83;4.70;;;14.00;1.00;;;;;;5081058;28;20571;-73
2022/05/05 06:24:06;;;;;;;8.40;5.70;;;14.00;1.00;;;;;;5087941;28;20457;-73
2022/05/05 06:26:35;;;;;;;6.60;5.23;;;14.30;1.00;;;;;;5081844;28;20476;-73
2022/05/05 06:29:02;;;;;;;7.07;5.47;;;14.50;99.90;;;;;;5076913;28;20526;-73
2022/05/05 06:31:29;;;;;;;6.30;5.67;;;14.20;99.90;;;;;;5080430;28;20544;-74
2022/05/05 06:33:56;;;;;;;5.73;4.80;;;14.00;1.00;;;;;;5083896;28;20548;-73
2022/05/05 06:36:23;;;;;;;7.10;5.63;;;13.80;6.40;;;;;;5082589;28;20452;-73
2022/05/05 06:38:52;;;;;;;5.30;4.67;;;13.80;1.00;;;;;;5076872;28;20474;-72
2022/05/05 06:41:20;;;;;;;6.27;5.23;;;14.00;1.00;;;;;;5079310;28;20482;-72
2022/05/05 06:43:48;;;;;;;8.00;5.73;;;13.90;1.00;;;;;;5083518;28;20454;-73
2022/05/05 06:46:15;;;;;;;8.37;5.00;;;14.20;1.00;;;;;;5083787;28;20481;-73
2022/05/05 06:48:42;;;;;;;8.30;5.10;;;14.20;99.90;;;;;;5076903;28;20532;-73
2022/05/05 06:51:09;;;;;;;6.63;4.90;;;14.10;1.00;;;;;;5079462;28;20457;-74
2022/05/05 06:53:36;;;;;;;4.80;4.23;;;14.20;1.00;;;;;;5070421;28;20573;-73
2022/05/05 06:56:03;;;;;;;4.63;4.17;;;14.20;1.00;;;;;;5083348;28;20485;-72
2022/05/05 06:58:30;;;;;;;6.00;4.73;;;14.20;1.00;;;;;;5077061;28;20449;-73
2022/05/05 07:03:43;;;;;;;4.37;3.70;;;14.30;99.90;;;;;;5078680;28;20913;-72
2022/05/05 07:06:10;;;;;;;6.43;4.93;;;14.50;1.00;;;;;;5077208;28;20960;-73
2022/05/05 07:11:22;;;;;;;5.97;4.70;;;14.50;46.50;;;;;;5084496;28;20431;-73
2022/05/05 07:13:49;;;;;;;7.40;5.30;;;14.50;1.00;;;;;;5081545;28;20509;-73
2022/05/05 07:16:18;;;;;;;8.33;5.23;;;14.40;99.90;;;;;;5072997;28;20458;-73
2022/05/05 07:18:44;;;;;;;5.50;4.20;;;14.40;1.00;;;;;;5081776;28;20539;-74
2022/05/05 07:21:11;;;;;;;5.43;4.00;;;14.50;1.00;;;;;;5077297;28;20485;-73
2022/05/05 07:23:38;;;;;;;6.23;4.40;;;14.70;99.90;;;;;;5089905;28;20453;-72
2022/05/05 07:26:05;;;;;;;6.27;3.63;;;14.60;1.00;;;;;;5077307;28;20459;-73
2022/05/05 07:28:32;;;;;;;4.33;3.80;;;14.60;99.90;;;;;;5077492;28;20454;-72
2022/05/05 07:30:59;;;;;;;6.40;4.23;;;14.60;1.00;;;;;;5083763;28;20542;-72
2022/05/05 07:33:28;;;;;;;5.20;4.43;;;;;;;;;;5083470;28;20520;-73
2022/05/05 07:35:55;;;;;;;6.13;4.73;;;;;;;;;;5077151;28;20455;-73
2022/05/05 07:38:22;;;;;;;5.60;3.80;;;14.70;1.00;;;;;;5077007;28;20536;-72
2022/05/05 07:40:49;;;;;;;5.67;4.00;;;14.50;1.00;;;;;;5077311;28;20573;-72
2022/05/05 07:43:16;;;;;;;6.10;4.97;;;14.50;1.00;;;;;;5076323;28;20454;-73
2022/05/05 07:45:43;;;;;;;6.17;4.40;;;14.70;1.00;;;;;;5082721;28;20542;-73
2022/05/05 07:48:10;;;;;;;5.47;4.07;;;14.70;1.00;;;;;;5083405;28;20491;-73
2022/05/05 07:50:38;;;;;;;6.70;4.70;;;14.90;99.90;;;;;;5077715;28;20445;-73
2022/05/05 07:53:05;;;;;;;6.57;4.50;;;14.60;1.00;;;;;;5075581;28;20979;-73
2022/05/05 07:55:32;;;;;;;5.70;4.53;;;14.70;1.00;;;;;;5078320;28;20980;-73
2022/05/05 07:57:59;;;;;;;5.83;5.13;;;14.90;99.90;;;;;;5076956;28;20518;-73
2022/05/05 08:00:26;;;;;;;6.63;5.27;;;15.00;99.90;;;;;;5081570;28;20492;-73
2022/05/05 08:02:53;;;;;;;5.60;4.83;;;15.10;1.00;;;;;;5083433;28;20549;-73
2022/05/05 08:05:20;;;;;;;6.00;4.60;;;14.90;99.90;;;;;;5079681;28;20537;-73
2022/05/05 08:07:49;;;;;;;5.80;4.80;;;14.80;1.00;;;;;;5076578;28;20474;-73
2022/05/05 08:10:17;;;;;;;6.77;5.83;;;15.00;99.90;;;;;;5081186;28;20450;-73
2022/05/05 08:12:45;;;;;;;6.90;5.50;;;15.00;1.00;;;;;;5087446;28;20450;-73
2022/05/05 08:15:12;;;;;;;6.70;5.03;;;15.00;1.00;;;;;;5084529;28;20939;-73
2022/05/05 08:17:40;;;;;;;6.80;5.10;;;15.00;1.00;;;;;;5080655;28;20451;-73
2022/05/05 08:20:08;;;;;;;9.23;5.73;;;14.90;99.90;;;;;;5083037;28;20452;-73
2022/05/05 08:22:35;;;;;;;8.53;5.73;;;14.80;99.90;;;;;;5091111;28;20488;-73
2022/05/05 08:30:33;;;;;;;5.90;5.30;;;15.10;1.00;;;;;;5077382;28;20478;-73
2022/05/05 08:33:00;;;;;;;7.30;6.17;;;;;;;;;;5083764;28;20459;-73
2022/05/05 08:35:28;;;;;;;8.33;5.57;;;;;;;;;;5080479;28;20523;-73
2022/05/05 08:37:55;;;;;;;7.60;5.43;;;;;;;;;;5083191;28;20449;-74
2022/05/05 08:40:25;;;;;;;7.20;5.67;;;;;;;;;;5087100;28;20453;-73
2022/05/05 08:42:53;;;;;;;6.73;5.40;;;;;;;;;;5083709;28;20452;-73
2022/05/05 08:45:20;;;;;;;6.57;5.37;;;;;;;;;;5080022;28;21014;-73
2022/05/05 08:47:48;;;;;;;8.97;6.50;;;;;;;;;;5082050;28;20540;-73
2022/05/05 08:50:16;;;;;;;7.47;5.37;;;;;;;;;;5087105;28;20614;-73
2022/05/05 08:52:48;;;;;;;7.07;5.70;;;;;;;;;;5072694;28;20576;-74
2022/05/05 08:55:16;;;;;;;8.00;5.43;;;;;;;;;;5079450;28;20867;-72
2022/05/05 08:57:44;;;;;;;7.33;5.50;;;;;;;;;;5080166;28;20548;-73
2022/05/05 09:00:13;;;;;;;6.93;5.80;;;;;;;;;;5086123;28;20450;-73
2022/05/05 09:02:40;;;;;;;6.57;5.80;;;;;;;;;;5086214;28;20480;-73
2022/05/05 09:05:08;;;;;;;10.40;6.20;;;;;;;;;;5080042;28;20476;-72
2022/05/05 09:07:48;;;;;;;9.23;6.22;;;;;;;;;;5079451;28;20832;-72
2022/05/05 09:10:16;;;;;;;5.90;5.30;;;;;;;;;;5084920;28;20199;-74
2022/05/05 09:12:56;;;;;;;6.95;6.25;;;;;;;;;;5085561;28;20447;-73
2022/05/05 09:15:30;;;;;;;9.77;7.17;;;;;;;;;;5084159;28;20202;-73
2022/05/05 09:17:57;;;;;;;8.93;6.93;;;;;;;;;;5073491;28;20478;-73
2022/05/05 09:20:36;;;;;;;10.00;7.90;;;;;;;;;;5085394;28;20449;-73
2022/05/05 09:23:03;;;;;;;8.60;6.87;;;;;;;;;;5092732;28;20459;-73
2022/05/05 09:25:44;;;;;;;10.70;7.63;;;;;;;;;;5079391;28;20450;-73
2022/05/05 09:28:18;;;;;;;11.33;8.57;;;;;;;;;;5083003;28;20464;-73
2022/05/05 09:30:49;;;;;;;12.03;8.10;;;;;;;;;;5034049;28;20481;-73
2022/05/05 09:33:17;;;;;;;9.13;7.70;;;;;;;;;;5084348;28;20447;-73
2022/05/05 09:35:45;;;;;;;9.27;8.23;;;;;;;;;;5079034;28;20498;-73
2022/05/05 09:38:12;;;;;;;8.77;7.47;;;;;;;;;;5080159;28;20533;-73
2022/05/05 09:40:39;;;;;;;12.47;8.70;;;;;;;;;;5085635;28;20460;-73
2022/05/05 09:43:11;;;;;;;9.50;8.33;;;;;;;;;;5085410;28;20449;-73
2022/05/05 09:45:40;;;;;;;9.50;8.00;;;;;;;;;;5079008;28;20507;-73
2022/05/05 09:48:09;;;;;;;10.00;6.97;;;;;;;;;;5078852;28;20445;-73
2022/05/05 09:50:37;;;;;;;9.03;7.63;;;;;;;;;;5085209;28;20446;-73
2022/05/05 09:58:36;;;;;;;12.33;8.60;;;15.90;99.90;;;;;;5077879;28;20470;-73
2022/05/05 10:01:08;;;;;;;12.90;8.77;;;16.10;1.00;;;;;;5078156;28;20565;-73
2022/05/05 10:04:01;;;;;;;8.70;7.80;;;15.70;99.90;;;;;;5084716;28;20445;-73
2022/05/05 10:06:30;;;;;;;10.33;7.70;;;15.60;99.90;;;;;;5085865;28;20477;-73
2022/05/05 10:09:01;;;;;;;10.70;7.67;;;15.70;99.90;;;;;;5083877;28;20848;-73
2022/05/05 10:11:28;;;;;;;12.60;8.10;;;15.80;99.90;;;;;;5078854;28;20549;-73
2022/05/05 10:13:57;;;;;;;9.73;7.77;;;16.20;99.90;;;;;;5079171;28;20446;-73
2022/05/05 10:16:26;;;;;;;9.23;7.80;;;16.00;58.80;;;;;;5085571;28;20441;-73
2022/05/05 10:18:53;;;;;;;12.87;8.13;;;16.10;58.70;;;;;;5083893;28;20444;-73
2022/05/05 10:21:38;;;;;;;10.57;7.90;;;16.20;66.20;;;;;;5078025;28;20482;-73
2022/05/05 10:24:17;;;;;;;9.50;7.73;;;16.40;1.00;;;;;;5090089;28;20552;-74
2022/05/05 10:26:49;;;;;;;10.70;9.27;;;16.50;1.00;;;;;;5081866;28;21000;-73
2022/05/05 10:29:36;;;;;;;10.63;8.60;;;16.40;1.00;;;;;;5077649;28;20463;-74
2022/05/05 10:32:12;;;;;;;10.93;8.60;;;16.30;1.00;;;;;;5078134;28;20453;-73
2022/05/05 10:34:39;;;;;;;9.20;8.17;;;16.40;1.00;;;;;;5082015;28;20520;-72
2022/05/05 10:37:08;;;;;;;12.93;8.33;;;16.40;1.00;;;;;;5085371;28;20469;-73
2022/05/05 10:40:02;;;;;;;8.73;7.93;;;16.50;1.00;;;;;;5080405;28;20527;-72
2022/05/05 10:42:39;;;;;;;12.00;9.30;;;16.60;1.00;;;;;;5081540;28;20515;-74
2022/05/05 10:45:31;;;;;;;12.07;9.10;;;16.60;1.00;;;;;;5084953;28;20440;-73
2022/05/05 10:48:35;;;;;;;10.50;8.67;;;16.70;99.90;;;;;;5082963;28;20441;-74
2022/05/05 10:51:07;;;;;;;12.53;8.90;;;16.50;99.90;;;;;;5081768;28;20491;-73
2022/05/05 10:53:41;;;;;;;11.13;9.70;;;16.80;99.90;;;;;;5070181;28;20561;-73
2022/05/05 10:56:29;;;;;;;9.70;8.20;;;16.60;99.90;;;;;;5084767;28;20436;-73
2022/05/05 10:58:58;;;;;;;9.50;8.50;;;16.80;99.90;;;;;;5079977;28;20513;-73
2022/05/05 11:01:25;;;;;;;10.50;9.10;;;16.50;99.90;;;;;;5077369;28;20477;-73
2022/05/05 11:04:07;;;;;;;11.03;8.80;;;16.60;99.90;;;;;;5081198;28;20454;-74
2022/05/05 11:06:36;;;;;;;11.63;9.00;;;16.30;1.00;;;;;;5084163;28;20437;-73
2022/05/05 11:09:04;;;;;;;12.57;10.17;;;16.30;1.00;;;;;;5084251;28;20449;-74
2022/05/05 11:11:41;;;;;;;16.47;9.30;;;16.20;99.90;;;;;;5077931;28;20448;-74
2022/05/05 11:22:59;;;;;;;12.13;10.43;;;;;;;;;;5071605;28;20484;-75
2022/05/05 11:25:26;;;;;;;14.00;11.10;;;;;;;;;;5086369;28;20448;-72
2022/05/05 11:27:57;;;;;;;11.17;10.00;;;;;;;;;;5076232;28;20507;-73
2022/05/05 11:30:24;;;;;;;14.63;10.10;;;;;;;;;;5084089;28;20488;-74
2022/05/05 11:32:51;;;;;;;13.20;11.20;;;;;;;;;;5070708;28;20503;-74
2022/05/05 11:35:22;;;;;;;12.37;11.07;;;;;;;;;;5082761;28;20947;-74
2022/05/05 11:37:50;;;;;;;11.20;9.67;;;;;;;;;;5083451;28;20449;-72
2022/05/05 11:40:17;;;;;;;12.60;9.93;;;;;;;;;;5076132;28;20446;-73
2022/05/05 11:45:27;;;;;;;14.80;9.87;;;;;;;;;;5076932;28;20992;-72
2022/05/05 11:47:55;;;;;;;14.30;10.90;;;;;;;;;;5086516;28;20469;-72
2022/05/05 11:50:24;;;;;;;14.53;10.20;;;;;;;;;;5074933;28;20445;-72
2022/05/05 11:52:51;;;;;;;12.10;9.60;;;;;;;;;;5074052;28;20772;-72
2022/05/05 11:55:20;;;;;;;13.47;9.90;;;;;;;;;;5080886;28;20451;-72
2022/05/05 11:57:50;;;;;;;12.43;10.77;;;;;;;;;;5080928;28;20478;-72
2022/05/05 12:03:02;;;;;;;13.23;8.90;;;;;;;;;;5088240;28;21017;-72
2022/05/05 12:05:32;;;;;;;12.73;9.73;;;;;;;;;;5084962;28;20519;-71
2022/05/05 12:07:59;;;;;;;12.80;9.57;;;;;;;;;;5080859;28;20451;-71
2022/05/05 12:10:34;;;;;;;13.33;9.20;;;;;;;;;;5084290;28;20452;-71
2022/05/05 12:13:02;;;;;;;14.67;10.73;;;;;;;;;;5087988;28;20458;-72
2022/05/05 12:15:29;;;;;;;12.60;9.80;;;;;;;;;;5086859;28;20444;-72
2022/05/05 12:17:58;;;;;;;14.30;10.27;;;;;;;;;;5080640;28;20900;-71
2022/05/05 12:20:26;;;;;;;14.43;10.87;;;;;;;;;;5081715;28;20472;-72
2022/05/05 12:22:58;;;;;;;17.73;10.70;;;;;;;;;;5093181;28;20502;-72
2022/05/05 12:25:25;;;;;;;16.70;11.30;;;;;;;;;;5079732;28;20460;-73
2022/05/05 12:28:04;;;;;;;13.30;11.27;;;;;;;;;;5084374;28;20543;-72
2022/05/05 12:30:32;;;;;;;14.60;10.67;;;;;;;;;;5080984;28;20999;-72
2022/05/05 12:32:59;;;;;;;12.83;10.33;;;;;;;;;;5086811;28;20452;-72
2022/05/05 12:35:30;;;;;;;13.83;10.53;;;;;;;;;;5088291;28;20518;-72
2022/05/05 12:37:58;;;;;;;16.97;11.70;;;;;;;;;;5079443;28;20446;-73
2022/05/05 12:40:26;;;;;;;17.63;12.13;;;;;;;;;;5083288;28;20452;-72
2022/05/05 12:43:00;;;;;;;19.53;14.97;;;;;;;;;;5077745;28;20478;-72
2022/05/05 12:45:27;;;;;;;15.80;11.43;;;;;;;;;;5076524;28;20862;-76
2022/05/05 12:47:55;;;;;;;21.03;12.20;;;;;;;;;;5077193;28;20442;-73
2022/05/05 12:50:32;;;;;;;13.67;10.23;;;;;;;;;;5082978;28;20444;-73
2022/05/05 13:01:22;;;;;;;18.50;11.53;;;16.70;99.90;;;;;;5071785;28;20474;-72
2022/05/05 13:03:50;;;;;;;13.03;9.87;;;16.60;99.90;;;;;;5076921;28;20854;-73
2022/05/05 13:06:17;;;;;;;16.00;9.60;;;16.60;1.00;;;;;;5073341;28;20941;-72
2022/05/05 13:08:47;;;;;;;13.20;9.87;;;16.50;1.00;;;;;;5072112;28;20449;-72
2022/05/05 13:11:14;;;;;;;15.50;10.63;;;16.70;99.90;;;;;;5074724;28;20953;-74
2022/05/05 13:13:41;;;;;;;15.80;11.00;;;16.70;1.00;;;;;;5071484;28;20449;-73
2022/05/05 13:16:08;;;;;;;17.27;11.37;;;16.60;99.90;;;;;;5073631;28;20528;-73
2022/05/05 13:18:35;;;;;;;16.17;10.20;;;16.70;31.40;;;;;;5077215;28;20537;-73
2022/05/05 13:21:02;;;;;;;11.67;9.03;;;16.80;1.00;;;;;;5075819;28;20446;-73
2022/05/05 13:23:29;;;;;;;14.33;10.67;;;16.90;1.00;;;;;;5078339;28;20589;-73
2022/05/05 13:25:58;;;;;;;13.47;9.90;;;17.10;1.00;;;;;;5078382;28;20446;-73
2022/05/05 13:28:24;;;;;;;13.97;10.33;;;16.80;99.90;;;;;;5073987;28;20802;-73
2022/05/05 13:30:51;;;;;;;16.47;10.80;;;17.20;1.00;;;;;;5078590;28;20733;-73
2022/05/05 13:33:18;;;;;;;13.87;9.93;;;17.40;99.90;;;;;;5076479;28;20954;-73
2022/05/05 13:35:45;;;;;;;14.50;10.83;;;17.90;1.00;;;;;;5079263;28;20445;-72
2022/05/05 13:38:12;;;;;;;12.60;9.30;;;17.30;1.00;;;;;;5079458;28;20972;-73
2022/05/05 13:40:39;;;;;;;12.10;10.27;;;17.20;1.00;;;;;;5078200;28;21020;-73
2022/05/05 13:43:07;;;;;;;14.67;10.37;;;17.50;1.00;;;;;;5076442;28;20483;-73
2022/05/05 13:45:34;;;;;;;15.83;10.63;;;17.70;1.00;;;;;;5082182;28;20446;-73
2022/05/05 13:48:01;;;;;;;14.57;10.10;;;18.10;99.90;;;;;;5076533;28;20491;-73
2022/05/05 13:50:28;;;;;;;13.97;9.23;;;17.50;1.00;;;;;;5076559;28;20457;-74
2022/05/05 13:52:55;;;;;;;14.10;9.93;;;17.60;1.00;;;;;;5075426;28;20608;-73
2022/05/05 13:55:22;;;;;;;11.47;9.23;;;17.50;1.00;;;;;;5073594;28;20546;-73
2022/05/05 13:57:49;;;;;;;16.50;11.00;;;17.20;99.90;;;;;;5073558;28;20878;-73
2022/05/05 14:00:18;;;;;;;13.77;10.33;;;17.20;99.90;;;;;;5074185;28;20476;-73
2022/05/05 14:02:45;;;;;;;11.40;9.03;;;17.20;1.00;;;;;;5071358;28;20493;-73
2022/05/05 14:05:12;;;;;;;12.13;8.30;;;17.20;99.90;;;;;;5070208;28;20533;-73
2022/05/05 14:13:07;;;;;;;15.50;9.37;;;17.20;1.00;;;;;;5079187;28;20554;-73
2022/05/05 14:15:36;;;;;;;10.27;8.40;;;17.40;99.90;;;;;;5080905;28;20544;-73
2022/05/05 14:18:05;;;;;;;12.50;8.63;;;17.30;1.00;;;;;;5074817;28;20856;-73
2022/05/05 14:20:32;;;;;;;13.70;10.00;;;17.60;99.90;;;;;;5074709;28;20452;-73
2022/05/05 14:22:59;;;;;;;10.60;8.67;;;;;;;;;;5071227;28;21018;-72
2022/05/05 14:25:26;;;;;;;11.80;9.90;;;;;;;;;;5073139;28;20452;-73
2022/05/05 14:27:54;;;;;;;12.93;9.93;;;;;;;;;;5080645;28;20445;-73
2022/05/05 14:30:21;;;;;;;9.93;8.50;;;;;;;;;;5074680;28;21123;-71
2022/05/05 14:32:50;;;;;;;10.30;9.10;;;;;;;;;;5079319;28;20455;-72
2022/05/05 14:35:17;;;;;;;8.87;7.97;;;;;;;;;;5076170;28;20446;-72
2022/05/05 14:37:44;;;;;;;9.93;8.30;;;;;;;;;;5080682;28;20449;-73
2022/05/05 14:40:12;;;;;;;12.07;8.60;;;;;;;;;;5077010;28;20456;-73
2022/05/05 14:42:39;;;;;;;9.00;7.83;;;;;;;;;;5081348;28;20484;-72
2022/05/05 14:45:07;;;;;;;14.97;10.43;;;;;;;;;;5078435;28;20495;-72
2022/05/05 14:47:34;;;;;;;9.80;8.50;;;;;;;;;;5079011;28;20453;-72
2022/05/05 14:50:02;;;;;;;12.47;9.43;;;;;;;;;;5077190;28;20454;-73
2022/05/05 14:52:30;;;;;;;9.17;8.27;;;;;;;;;;5076440;28;20482;-73
2022/05/05 14:54:57;;;;;;;11.03;9.93;;;;;;;;;;5080490;28;20793;-73
2022/05/05 14:57:24;;;;;;;9.77;8.40;;;;;;;;;;5072660;28;20954;-72
2022/05/05 14:59:51;;;;;;;9.30;8.40;;;;;;;;;;5079277;28;20704;-72